Warners, New York
Current Conditions -  °F | °C
As of 12:54 AM on Thursday 23 Oct 2014 (Local Time) from KSYR Reporting Station
Broken Clouds Broken Clouds  
Wind Chill: 43°   Ceiling: 16000
Heat Index: 46°   Visibility: 10mi
Dew Point: 41°   Wind: 6mph
Humidity: 83%   Direction: 290°WNW
Pressure: 30.04"   Gusts: NA
Location:  43.09°N, 76.33°W
Report Text: KSYR 230454Z 29005KT 10SM SCT085 BKN160 BKN180 08/05 A3004 RMK AO2 SLP171 T00780050 401330067
Loading
Personal Weather Stations






























Interactive Weather Map
Tropical Storm Tracking
New forecast layout! Learn more

10-Day Weather Forecast

Advertisements
Track Severe Weather on mobile